PWSweather.com
Personal Weather Stations
Station Observations
SHAHALMS1
Eftra, Falkenberg, HA

EftraFalkenberg, HA

Lat: 56.85, Lon: 12.65

Elevation: 140

Station Type:

http://hem.passagen.se/risarp101

Latest ConditionsUpdated 5:15:00 PM GMT+1 Friday, May 25, 2018
Currently Today's Max Today's Min Today's Average
Temperature 78.4°F25.8°C 81.9°F27.7°C 51.8°F11.0°C 67.5°F19.7°C
Dew Point 37.6°F3.1°C 53.3°F11.8°C 36.3°F2.4°C 45.8°F7.7°C
Winds 13.4 mph E21.6 kmh E 13.4 mph E21.6 kmh E - 5.1 mph 8.2 kmh
Wind Gusts 16.5 mph26.6 kmh 22.5 mph36.2 kmh - -
Humidity 23% 71% 21% 50%
Pressure 30.21 in1023.0 mb 30.30 in1026.1 mb 30.18 in1022.0 mb -
Hour Temp Dew Point Humidity Winds Wind Gusts Pressure Precip Precip Rate Daily Precip Total
05:15 PM 78.4°F25.8°C 37.6°F3.1°C 23% 13.4 mph E21.6 kmh E 16.5 mph26.6 kmh 30.21 in1023.0 mb 0.00 in0.0 mm 0.00 in0.0 mm 0.00 in0.0 mm
05:00 PM 79.2°F26.2°C 37.0°F2.8°C 22% 13.4 mph E21.6 kmh E 16.5 mph26.6 kmh 30.21 in1023.0 mb 0.00 in0.0 mm 0.00 in0.0 mm 0.00 in0.0 mm
04:45 PM 79.7°F26.5°C 36.3°F2.4°C 21% 13.4 mph E21.6 kmh E 16.5 mph26.6 kmh 30.21 in1023.0 mb 0.00 in0.0 mm 0.00 in0.0 mm 0.00 in0.0 mm
04:30 PM 80.1°F26.7°C 37.8°F3.2°C 22% 13.4 mph E21.6 kmh E 16.5 mph26.6 kmh 30.18 in1022.0 mb 0.00 in0.0 mm 0.00 in0.0 mm 0.00 in0.0 mm
04:15 PM 80.1°F26.7°C 38.9°F3.8°C 23% 13.4 mph E21.6 kmh E 16.5 mph26.6 kmh 30.21 in1023.0 mb 0.00 in0.0 mm 0.00 in0.0 mm 0.00 in0.0 mm
04:00 PM 80.6°F27.0°C 38.2°F3.4°C 22% 13.4 mph E21.6 kmh E 16.5 mph26.6 kmh 30.21 in1023.0 mb 0.00 in0.0 mm 0.00 in0.0 mm 0.00 in0.0 mm
03:45 PM 81.3°F27.4°C 40.0°F4.4°C 23% 13.4 mph E21.6 kmh E 16.5 mph26.6 kmh 30.21 in1023.0 mb 0.00 in0.0 mm 0.00 in0.0 mm 0.00 in0.0 mm
03:30 PM 81.9°F27.7°C 42.6°F5.9°C 25% 9.2 mph E14.8 kmh E 16.5 mph26.6 kmh 30.21 in1023.0 mb 0.00 in0.0 mm 0.00 in0.0 mm 0.00 in0.0 mm
03:15 PM 81.7°F27.6°C 42.4°F5.8°C 25% 9.2 mph SE14.8 kmh SE 19.3 mph31.1 kmh 30.18 in1022.0 mb 0.00 in0.0 mm 0.00 in0.0 mm 0.00 in0.0 mm
03:00 PM 81.5°F27.5°C 44.3°F6.8°C 27% 10.0 mph E16.1 kmh E 12.5 mph20.1 kmh 30.21 in1023.0 mb 0.00 in0.0 mm 0.00 in0.0 mm 0.00 in0.0 mm
02:45 PM 81.5°F27.5°C 44.3°F6.8°C 27% 9.6 mph E15.4 kmh E 12.5 mph20.1 kmh 30.18 in1022.0 mb 0.00 in0.0 mm 0.00 in0.0 mm 0.00 in0.0 mm
02:30 PM 81.7°F27.6°C 45.4°F7.4°C 28% 8.4 mph E13.5 kmh E 10.4 mph16.7 kmh 30.18 in1022.0 mb 0.00 in0.0 mm 0.00 in0.0 mm 0.00 in0.0 mm
02:15 PM 81.7°F27.6°C 46.3°F7.9°C 29% 7.3 mph E11.7 kmh E 10.0 mph16.1 kmh 30.21 in1023.0 mb 0.00 in0.0 mm 0.00 in0.0 mm 0.00 in0.0 mm
02:00 PM 81.5°F27.5°C 46.2°F7.9°C 29% 6.2 mph E10.0 kmh E 16.8 mph27.0 kmh 30.21 in1023.0 mb 0.00 in0.0 mm 0.00 in0.0 mm 0.00 in0.0 mm
01:45 PM 81.0°F27.2°C 47.5°F8.6°C 31% 6.0 mph E9.7 kmh E 15.7 mph25.3 kmh 30.21 in1023.0 mb 0.00 in0.0 mm 0.00 in0.0 mm 0.00 in0.0 mm
01:30 PM 81.3°F27.4°C 47.8°F8.8°C 31% 6.9 mph E11.1 kmh E 22.5 mph36.2 kmh 30.21 in1023.0 mb 0.00 in0.0 mm 0.00 in0.0 mm 0.00 in0.0 mm
01:15 PM 81.0°F27.2°C 49.1°F9.5°C 33% 7.1 mph ESE11.4 kmh ESE 12.5 mph20.1 kmh 30.21 in1023.0 mb 0.00 in0.0 mm 0.00 in0.0 mm 0.00 in0.0 mm
01:00 PM 79.7°F26.5°C 48.0°F8.9°C 33% 4.4 mph N7.1 kmh N 7.9 mph12.7 kmh 30.24 in1024.0 mb 0.00 in0.0 mm 0.00 in0.0 mm 0.00 in0.0 mm
12:45 PM 81.0°F27.2°C 49.9°F9.9°C 34% 6.1 mph E9.8 kmh E 16.1 mph25.9 kmh 30.24 in1024.0 mb 0.00 in0.0 mm 0.00 in0.0 mm 0.00 in0.0 mm
12:30 PM 80.8°F27.1°C 50.6°F10.3°C 35% 8.2 mph E13.2 kmh E 17.2 mph27.7 kmh 30.24 in1024.0 mb 0.00 in0.0 mm 0.00 in0.0 mm 0.00 in0.0 mm
12:15 PM 80.1°F26.7°C 51.4°F10.8°C 37% 7.0 mph E11.3 kmh E 17.2 mph27.7 kmh 30.24 in1024.0 mb 0.00 in0.0 mm 0.00 in0.0 mm 0.00 in0.0 mm
12:00 PM 79.0°F26.1°C 50.5°F10.3°C 37% 4.7 mph E7.6 kmh E 13.6 mph21.9 kmh 30.27 in1025.1 mb 0.00 in0.0 mm 0.00 in0.0 mm 0.00 in0.0 mm
11:45 AM 78.3°F25.7°C 50.6°F10.3°C 38% 4.1 mph NE6.6 kmh NE 10.0 mph16.1 kmh 30.24 in1024.0 mb 0.00 in0.0 mm 0.00 in0.0 mm 0.00 in0.0 mm
11:30 AM 77.9°F25.5°C 51.6°F10.9°C 40% 3.7 mph NNE6.0 kmh NNE 10.0 mph16.1 kmh 30.27 in1025.1 mb 0.00 in0.0 mm 0.00 in0.0 mm 0.00 in0.0 mm
11:15 AM 77.2°F25.1°C 51.0°F10.6°C 40% 3.1 mph NE5.0 kmh NE 6.4 mph10.3 kmh 30.27 in1025.1 mb 0.00 in0.0 mm 0.00 in0.0 mm 0.00 in0.0 mm
11:00 AM 76.3°F24.6°C 50.8°F10.4°C 41% 5.6 mph N9.0 kmh N 13.6 mph21.9 kmh 30.27 in1025.1 mb 0.00 in0.0 mm 0.00 in0.0 mm 0.00 in0.0 mm
10:45 AM 75.7°F24.3°C 51.6°F10.9°C 43% 3.0 mph NNE4.8 kmh NNE 8.9 mph14.3 kmh 30.27 in1025.1 mb 0.00 in0.0 mm 0.00 in0.0 mm 0.00 in0.0 mm
10:30 AM 75.2°F24.0°C 50.5°F10.3°C 42% 3.9 mph N6.3 kmh N 11.8 mph19.0 kmh 30.30 in1026.1 mb 0.00 in0.0 mm 0.00 in0.0 mm 0.00 in0.0 mm
10:15 AM 74.5°F23.6°C 51.1°F10.6°C 44% 4.3 mph N6.9 kmh N 12.2 mph19.6 kmh 30.24 in1024.0 mb 0.00 in0.0 mm 0.00 in0.0 mm 0.00 in0.0 mm
10:00 AM 73.9°F23.3°C 51.8°F11.0°C 46% 7.2 mph N11.6 kmh N 12.9 mph20.8 kmh 30.27 in1025.1 mb 0.00 in0.0 mm 0.00 in0.0 mm 0.00 in0.0 mm
09:45 AM 73.2°F22.9°C 51.8°F11.0°C 47% 2.6 mph N4.2 kmh N 9.3 mph15.0 kmh 30.27 in1025.1 mb 0.00 in0.0 mm 0.00 in0.0 mm 0.00 in0.0 mm
09:30 AM 72.5°F22.5°C 52.2°F11.2°C 49% 3.0 mph N4.8 kmh N 11.8 mph19.0 kmh 30.24 in1024.0 mb 0.00 in0.0 mm 0.00 in0.0 mm 0.00 in0.0 mm
09:15 AM 72.0°F22.2°C 52.3°F11.3°C 50% 2.8 mph N4.5 kmh N 10.0 mph16.1 kmh 30.24 in1024.0 mb 0.00 in0.0 mm 0.00 in0.0 mm 0.00 in0.0 mm
09:00 AM 71.1°F21.7°C 52.0°F11.1°C 51% 2.3 mph N3.7 kmh N 7.9 mph12.7 kmh 30.27 in1025.1 mb 0.00 in0.0 mm 0.00 in0.0 mm 0.00 in0.0 mm
08:45 AM 70.3°F21.3°C 51.9°F11.1°C 52% 1.7 mph N2.7 kmh N 10.4 mph16.7 kmh 30.27 in1025.1 mb 0.00 in0.0 mm 0.00 in0.0 mm 0.00 in0.0 mm
08:30 AM 69.8°F21.0°C 52.4°F11.3°C 54% 1.3 mph SE2.1 kmh SE 6.1 mph9.8 kmh 30.27 in1025.1 mb 0.00 in0.0 mm 0.00 in0.0 mm 0.00 in0.0 mm
08:15 AM 68.7°F20.4°C 52.9°F11.6°C 57% 1.6 mph SE2.6 kmh SE 7.9 mph12.7 kmh 30.27 in1025.1 mb 0.00 in0.0 mm 0.00 in0.0 mm 0.00 in0.0 mm
08:00 AM 67.6°F19.8°C 53.3°F11.8°C 60% 1.3 mph E2.1 kmh E 6.4 mph10.3 kmh 30.30 in1026.1 mb 0.00 in0.0 mm 0.00 in0.0 mm 0.00 in0.0 mm
07:45 AM 66.2°F19.0°C 52.8°F11.6°C 62% 0.6 mph E1.0 kmh E 5.7 mph9.2 kmh 30.27 in1025.1 mb 0.00 in0.0 mm 0.00 in0.0 mm 0.00 in0.0 mm
07:30 AM 64.9°F18.3°C 52.5°F11.4°C 64% Calm Calm -- 30.30 in1026.1 mb 0.00 in0.0 mm 0.00 in0.0 mm 0.00 in0.0 mm
07:15 AM 63.5°F17.5°C 51.9°F11.1°C 66% 0.3 mph E0.5 kmh E 1.4 mph2.3 kmh 30.27 in1025.1 mb 0.00 in0.0 mm 0.00 in0.0 mm 0.00 in0.0 mm
07:00 AM 61.5°F16.4°C 51.3°F10.7°C 69% 0.1 mph E0.2 kmh E 1.4 mph2.3 kmh 30.27 in1025.1 mb 0.00 in0.0 mm 0.00 in0.0 mm 0.00 in0.0 mm
06:45 AM 59.9°F15.5°C 49.7°F9.8°C 69% Calm Calm -- 30.27 in1025.1 mb 0.00 in0.0 mm 0.00 in0.0 mm 0.00 in0.0 mm
06:30 AM 58.5°F14.7°C 48.7°F9.3°C 70% 4.7 mph SE7.6 kmh SE 5.7 mph9.2 kmh 30.27 in1025.1 mb 0.00 in0.0 mm 0.00 in0.0 mm 0.00 in0.0 mm
06:15 AM 57.2°F14.0°C 47.5°F8.6°C 70% 4.7 mph SE7.6 kmh SE 5.7 mph9.2 kmh 30.27 in1025.1 mb 0.00 in0.0 mm 0.00 in0.0 mm 0.00 in0.0 mm
06:00 AM 55.9°F13.3°C 46.3°F7.9°C 70% 4.7 mph SE7.6 kmh SE 5.7 mph9.2 kmh 30.27 in1025.1 mb 0.00 in0.0 mm 0.00 in0.0 mm 0.00 in0.0 mm
05:45 AM 55.2°F12.9°C 45.6°F7.6°C 70% 4.7 mph SE7.6 kmh SE 5.7 mph9.2 kmh 30.27 in1025.1 mb 0.00 in0.0 mm 0.00 in0.0 mm 0.00 in0.0 mm
05:30 AM 54.7°F12.6°C 45.1°F7.3°C 70% 4.7 mph SE7.6 kmh SE 5.7 mph9.2 kmh 30.27 in1025.1 mb 0.00 in0.0 mm 0.00 in0.0 mm 0.00 in0.0 mm
05:15 AM 54.3°F12.4°C 45.1°F7.3°C 71% 4.7 mph SE7.6 kmh SE 5.7 mph9.2 kmh 30.27 in1025.1 mb 0.00 in0.0 mm 0.00 in0.0 mm 0.00 in0.0 mm
05:00 AM 53.6°F12.0°C 44.0°F6.7°C 70% 4.7 mph SE7.6 kmh SE 5.7 mph9.2 kmh 30.27 in1025.1 mb 0.00 in0.0 mm 0.00 in0.0 mm 0.00 in0.0 mm
04:45 AM 53.1°F11.7°C 43.9°F6.6°C 71% 4.7 mph SE7.6 kmh SE 5.7 mph9.2 kmh 30.30 in1026.1 mb 0.00 in0.0 mm 0.00 in0.0 mm 0.00 in0.0 mm
04:30 AM 52.5°F11.4°C 43.0°F6.1°C 70% 4.7 mph SE7.6 kmh SE 5.7 mph9.2 kmh 30.27 in1025.1 mb 0.00 in0.0 mm 0.00 in0.0 mm 0.00 in0.0 mm
04:15 AM 51.8°F11.0°C 41.9°F5.5°C 69% 4.7 mph SE7.6 kmh SE 5.7 mph9.2 kmh 30.27 in1025.1 mb 0.00 in0.0 mm 0.00 in0.0 mm 0.00 in0.0 mm
04:00 AM 52.2°F11.2°C 41.9°F5.5°C 68% 4.7 mph SE7.6 kmh SE 5.7 mph9.2 kmh 30.27 in1025.1 mb 0.00 in0.0 mm 0.00 in0.0 mm 0.00 in0.0 mm
03:45 AM 52.2°F11.2°C 41.9°F5.5°C 68% 5.6 mph SE9.0 kmh SE 7.5 mph12.1 kmh 30.27 in1025.1 mb 0.00 in0.0 mm 0.00 in0.0 mm 0.00 in0.0 mm
03:30 AM 52.2°F11.2°C 41.5°F5.3°C 67% 6.1 mph SE9.8 kmh SE 7.5 mph12.1 kmh 30.27 in1025.1 mb 0.00 in0.0 mm 0.00 in0.0 mm 0.00 in0.0 mm
03:15 AM 52.2°F11.2°C 41.5°F5.3°C 67% 4.9 mph SE7.9 kmh SE 6.1 mph9.8 kmh 30.27 in1025.1 mb 0.00 in0.0 mm 0.00 in0.0 mm 0.00 in0.0 mm
03:00 AM 52.2°F11.2°C 41.9°F5.5°C 68% 4.9 mph SE7.9 kmh SE 6.1 mph9.8 kmh 30.30 in1026.1 mb 0.00 in0.0 mm 0.00 in0.0 mm 0.00 in0.0 mm
02:45 AM 52.0°F11.1°C 41.4°F5.2°C 67% 4.9 mph SE7.9 kmh SE 6.1 mph9.8 kmh 30.30 in1026.1 mb 0.00 in0.0 mm 0.00 in0.0 mm 0.00 in0.0 mm
02:30 AM 52.2°F11.2°C 41.5°F5.3°C 67% 4.4 mph ESE7.1 kmh ESE 5.4 mph8.7 kmh 30.30 in1026.1 mb 0.00 in0.0 mm 0.00 in0.0 mm 0.00 in0.0 mm
02:15 AM 52.5°F11.4°C 41.5°F5.3°C 66% 4.4 mph ESE7.1 kmh ESE 5.4 mph8.7 kmh 30.30 in1026.1 mb 0.00 in0.0 mm 0.00 in0.0 mm 0.00 in0.0 mm
02:00 AM 52.9°F11.6°C 41.4°F5.2°C 65% 4.6 mph E7.4 kmh E 7.5 mph12.1 kmh 30.30 in1026.1 mb 0.00 in0.0 mm 0.00 in0.0 mm 0.00 in0.0 mm
01:45 AM 53.2°F11.8°C 41.4°F5.2°C 64% 5.3 mph E8.5 kmh E 7.9 mph12.7 kmh 30.30 in1026.1 mb 0.00 in0.0 mm 0.00 in0.0 mm 0.00 in0.0 mm
01:30 AM 53.8°F12.1°C 41.9°F5.5°C 64% Calm Calm -- 30.30 in1026.1 mb 0.00 in0.0 mm 0.00 in0.0 mm 0.00 in0.0 mm
01:15 AM 54.3°F12.4°C 41.1°F5.1°C 61% Calm Calm -- 30.30 in1026.1 mb 0.00 in0.0 mm 0.00 in0.0 mm 0.00 in0.0 mm
01:00 AM 55.0°F12.8°C 40.5°F4.7°C 58% Calm Calm -- 30.30 in1026.1 mb 0.00 in0.0 mm 0.00 in0.0 mm 0.00 in0.0 mm
12:45 AM 55.6°F13.1°C 40.1°F4.5°C 56% Calm Calm -- 30.30 in1026.1 mb 0.00 in0.0 mm 0.00 in0.0 mm 0.00 in0.0 mm
12:30 AM 55.9°F13.3°C 40.0°F4.4°C 55% 0.3 mph SSE0.5 kmh SSE 1.4 mph2.3 kmh 30.30 in1026.1 mb 0.00 in0.0 mm 0.00 in0.0 mm 0.00 in0.0 mm
12:15 AM 56.7°F13.7°C 39.7°F4.3°C 53% Calm Calm -- 30.30 in1026.1 mb 0.00 in0.0 mm 0.00 in0.0 mm 0.00 in0.0 mm
12:00 AM 57.2°F14.0°C 39.7°F4.3°C 52% Calm Calm -- 30.30 in1026.1 mb 0.00 in0.0 mm 0.00 in0.0 mm 0.00 in0.0 mm